Airfield :
LOGIN :

Register | Disclaimer

   EN    FR    IT 

 










Legend :    VFR   Marginal VFR   IFR   Intensive IFR   Very Intensive IFR
Visi :
Ceiling :
>= 8 km
>= 3000ft
5 to 8 km
1000 to 3000 ft
1500m to 5 km
500 to 1000 ft
800 to 1500m
200 to 500 ft
< 800m
< 200 ft
Symbols :   Thunderstorms  Fog  Heavy snow  Heavy precipitations  Wind > 20 kt
SIGMETs :     Misc.  Thunderstorms  Icing  Turbulence  Mountain Waves  Volcanic Ashes






- Airport Elevation : 1674 ft
- IATA code : BRN


LSZB - Bern Belp

CURRENT METAR :
  • 300350Z 30002KT 9999 OVC007 08/08 Q1018 NOSIG

EXPIRED METARs :
  • 300320Z AUTO VRB02KT 9999 OVC007 08/08 Q1018
  • 300250Z AUTO VRB01KT 9999 OVC007 08/08 Q1018
  • 300220Z AUTO VRB01KT 9999 BKN007 BKN009 07/07 Q1018
  • 300150Z AUTO VRB01KT 9999 BKN007 07/07 Q1019
  • 300120Z AUTO VRB01KT 9999 BKN007 07/07 Q1019

TAF TAF LSZB
Valid from the 30 at 03:00 until the 30 at 12:00 UTC


300225Z 3003/3012 VRB02KT 9999 BKN007
BECMG 3006/3009 SCT020
ATIS : +41 22 417 40 76



MET'MAP, your aeronautical weather chart ! - Copyright ORBIFLY December 2007 - Disclaimer

ORBIFLY MET'MAP TEAM :

Programming & Development : Alexandra Zaïnal
Concept & original design : Baudouin d'Aumeries
Assistance for programming : Marc-Olivier Méhu
Technical & hardware support : Manuel Goepfert

Contact : metmap@orbifly.com




SOURCES & CREDITS :

   NOAA